Time;durP1;ratioP1;P1;durP2;ratioP2;P2;SDS_P1;SDS_P2;PMS_P1;PMS_P2;Temp;Humidity;BMP_temperature;BMP_pressure;BME280_temperature;BME280_humidity;BME280_pressure;Samples;Min_cycle;Max_cycle;Signal;HPM_P1;HPM_P2
2023/09/30 00:01:30;;;;;;;16.07;5.23;;;;;;;;;;5055100;28;20411;-83
2023/09/30 00:03:56;;;;;;;17.33;6.80;;;;;;;;;;5056262;28;20979;-82
2023/09/30 00:06:23;;;;;;;14.97;5.93;;;;;;;;;;5055481;28;20421;-83
2023/09/30 00:08:49;;;;;;;12.00;5.10;;;;;;;;;;5053650;28;20450;-81
2023/09/30 00:11:16;;;;;;;16.30;5.57;;;;;;;;;;5055424;28;20447;-81
2023/09/30 00:13:45;;;;;;;15.00;4.93;;;;;;;;;;5055481;28;20525;-84
2023/09/30 00:16:12;;;;;;;9.83;4.63;;;;;;;;;;5055312;28;20490;-82
2023/09/30 00:18:38;;;;;;;12.87;5.60;;;;;;;;;;5054676;28;20462;-82
2023/09/30 00:21:06;;;;;;;16.73;7.03;;;;;;;;;;5055396;28;20434;-81
2023/09/30 00:23:33;;;;;;;16.33;6.20;;;;;;;;;;5054595;28;20454;-82
2023/09/30 00:26:00;;;;;;;18.20;5.47;;;;;;;;;;5054878;28;20414;-81
2023/09/30 00:28:26;;;;;;;15.60;5.60;;;;;;;;;;5055028;28;20500;-81
2023/09/30 00:30:54;;;;;;;14.50;5.30;;;;;;;;;;5053807;28;20427;-81
2023/09/30 00:33:20;;;;;;;18.03;5.63;;;;;;;;;;5033115;28;20480;-82
2023/09/30 00:35:47;;;;;;;13.13;5.70;;;;;;;;;;5042326;28;20450;-82
2023/09/30 00:38:14;;;;;;;17.23;4.73;;;;;;;;;;5055067;28;20829;-83
2023/09/30 00:40:47;;;;;;;11.70;5.73;;;;;;;;;;5055379;28;20423;-81
2023/09/30 00:43:20;;;;;;;15.53;6.40;;;;;;;;;;5034881;28;20469;-81
2023/09/30 00:45:47;;;;;;;11.20;5.53;;;;;;;;;;5037187;28;20399;-82
2023/09/30 00:48:14;;;;;;;20.63;7.73;;;;;;;;;;5039072;28;20478;-83
2023/09/30 00:50:41;;;;;;;11.17;6.00;;;;;;;;;;5038986;28;20441;-81
2023/09/30 00:53:08;;;;;;;14.17;5.43;;;;;;;;;;5038914;28;20522;-81
2023/09/30 00:55:34;;;;;;;19.93;6.43;;;;;;;;;;5055125;28;20495;-82
2023/09/30 00:58:02;;;;;;;11.30;5.17;;;;;;;;;;5058736;28;20463;-81
2023/09/30 01:00:31;;;;;;;19.00;7.00;;;;;;;;;;5057875;28;20467;-81
2023/09/30 01:02:59;;;;;;;14.43;5.90;;;;;;;;;;5058062;28;20442;-82
2023/09/30 01:05:27;;;;;;;24.03;6.00;;;;;;;;;;5057802;28;20937;-81
2023/09/30 01:07:53;;;;;;;19.80;6.10;;;;;;;;;;5074251;28;20420;-82
2023/09/30 01:10:20;;;;;;;12.93;5.00;;;;;;;;;;5078312;28;20426;-83
2023/09/30 01:12:46;;;;;;;17.77;6.53;;;;;;;;;;5077211;28;20442;-82
2023/09/30 01:15:13;;;;;;;19.40;6.23;;;;;;;;;;5093972;28;21015;-83
2023/09/30 01:17:39;;;;;;;15.30;6.20;;;;;;;;;;5076891;28;20815;-83
2023/09/30 01:20:07;;;;;;;15.90;6.03;;;;;;;;;;5077367;28;20473;-82
2023/09/30 01:22:38;;;;;;;12.27;5.50;;;;;;;;;;5078223;28;20439;-82
2023/09/30 01:25:05;;;;;;;16.10;6.20;;;;;;;;;;5077717;28;20498;-80
2023/09/30 01:27:31;;;;;;;22.50;6.40;;;;;;;;;;5077751;28;20440;-80
2023/09/30 01:29:58;;;;;;;16.83;6.67;;;;;;;;;;5075998;28;20494;-83
2023/09/30 01:32:28;;;;;;;18.70;6.80;;;;;;;;;;5076536;28;20808;-82
2023/09/30 01:34:56;;;;;;;13.90;6.00;;;;;;;;;;5076285;28;20475;-82
2023/09/30 01:37:23;;;;;;;19.37;6.80;;;;;;;;;;5078133;28;20569;-80
2023/09/30 01:39:54;;;;;;;19.47;7.63;;;;;;;;;;5078031;28;20474;-81
2023/09/30 01:42:22;;;;;;;13.57;6.97;;;;;;;;;;5075008;28;20447;-82
2023/09/30 01:44:48;;;;;;;17.40;7.53;;;;;;;;;;5077132;28;20441;-80
2023/09/30 01:47:15;;;;;;;19.90;7.63;;;;;;;;;;5077886;28;20980;-80
2023/09/30 01:49:42;;;;;;;14.93;7.43;;;;;;;;;;5056603;28;20475;-82
2023/09/30 01:52:09;;;;;;;18.40;7.30;;;;;;;;;;5041803;28;20440;-81
2023/09/30 01:54:35;;;;;;;21.73;6.60;;;;;;;;;;5077098;27;20471;-83
2023/09/30 01:57:03;;;;;;;19.23;6.77;;;;;;;;;;5076857;28;20479;-81
2023/09/30 01:59:30;;;;;;;13.33;5.93;;;;;;;;;;5076087;28;20448;-81
2023/09/30 02:01:56;;;;;;;14.90;6.63;;;;;;;;;;5077877;28;20447;-82
2023/09/30 02:04:24;;;;;;;17.90;6.70;;;;;;;;;;5077013;27;20474;-82
2023/09/30 02:06:51;;;;;;;16.63;6.57;;;;;;;;;;5077362;28;20443;-81
2023/09/30 02:09:17;;;;;;;26.07;7.50;;;;;;;;;;5076695;28;21048;-84
2023/09/30 02:11:44;;;;;;;16.47;7.27;;;;;;;;;;5077568;28;20924;-82
2023/09/30 02:14:12;;;;;;;18.67;6.60;;;;;;;;;;5077339;28;20524;-81
2023/09/30 02:16:39;;;;;;;16.97;6.83;;;;;;;;;;5078143;28;20864;-82
2023/09/30 02:19:06;;;;;;;14.50;6.33;;;;;;;;;;5077423;28;20467;-81
2023/09/30 02:21:35;;;;;;;19.70;7.07;;;;;;;;;;5064276;28;20447;-81
2023/09/30 02:24:02;;;;;;;22.03;6.53;;;;;;;;;;5057125;28;20522;-82
2023/09/30 02:26:29;;;;;;;15.47;6.97;;;;;;;;;;5057353;28;20432;-82
2023/09/30 02:28:56;;;;;;;16.20;6.50;;;;;;;;;;5055162;28;20475;-82
2023/09/30 02:31:26;;;;;;;17.67;6.00;;;;;;;;;;5057129;28;20459;-82
2023/09/30 02:33:52;;;;;;;14.37;6.13;;;;;;;;;;5055601;28;20849;-80
2023/09/30 02:36:18;;;;;;;19.43;7.27;;;;;;;;;;5056638;28;20481;-82
2023/09/30 02:38:46;;;;;;;15.53;6.07;;;;;;;;;;5054701;28;20468;-81
2023/09/30 02:41:12;;;;;;;16.20;6.60;;;;;;;;;;5057074;28;20965;-82
2023/09/30 02:43:40;;;;;;;19.23;5.40;;;;;;;;;;5069456;28;20474;-82
2023/09/30 02:46:08;;;;;;;22.10;6.77;;;;;;;;;;5075554;28;20435;-81
2023/09/30 02:48:36;;;;;;;14.93;7.50;;;;;;;;;;5076320;28;20494;-82
2023/09/30 02:51:02;;;;;;;13.23;5.17;;;;;;;;;;5075493;28;20525;-82
2023/09/30 02:53:29;;;;;;;14.10;7.07;;;;;;;;;;5075277;28;20482;-82
2023/09/30 02:55:56;;;;;;;12.13;6.40;;;;;;;;;;5076771;28;20841;-80
2023/09/30 02:58:23;;;;;;;22.60;6.83;;;;;;;;;;5058268;28;20441;-82
2023/09/30 03:00:50;;;;;;;16.40;7.90;;;;;;;;;;5076722;28;20453;-81
2023/09/30 03:03:19;;;;;;;16.93;7.23;;;;;;;;;;5076366;28;20463;-82
2023/09/30 03:05:48;;;;;;;17.17;6.73;;;;;;;;;;5070035;28;20444;-82
2023/09/30 03:08:15;;;;;;;18.20;7.10;;;;;;;;;;5054331;28;20550;-81
2023/09/30 03:10:42;;;;;;;14.47;6.27;;;;;;;;;;5056514;28;20436;-83
2023/09/30 03:13:11;;;;;;;17.60;7.20;;;;;;;;;;5056085;28;20976;-81
2023/09/30 03:15:38;;;;;;;13.23;6.63;;;;;;;;;;5056522;28;20513;-81
2023/09/30 03:18:05;;;;;;;16.20;7.20;;;;;;;;;;5056248;28;20979;-82
2023/09/30 03:20:32;;;;;;;20.10;7.13;;;;;;;;;;5054834;28;20479;-81
2023/09/30 03:23:00;;;;;;;13.50;7.03;;;;;;;;;;5053463;28;20507;-81
2023/09/30 03:25:26;;;;;;;17.87;6.60;;;;;;;;;;5036064;28;20487;-81
2023/09/30 03:27:53;;;;;;;20.27;7.67;;;;;;;;;;5035898;28;20440;-81
2023/09/30 03:30:21;;;;;;;19.50;7.60;;;;;;;;;;5036180;28;20452;-81
2023/09/30 03:32:47;;;;;;;20.77;7.03;;;;;;;;;;5035240;28;20435;-81
2023/09/30 03:35:15;;;;;;;15.60;6.47;;;;;;;;;;5035560;28;20469;-81
2023/09/30 03:37:41;;;;;;;15.83;6.73;;;;;;;;;;5035202;28;20481;-81
2023/09/30 03:40:14;;;;;;;13.17;6.37;;;;;;;;;;5035725;28;20436;-81
2023/09/30 03:42:42;;;;;;;16.37;7.33;;;;;;;;;;5033963;28;20491;-82
2023/09/30 03:45:09;;;;;;;19.53;7.23;;;;;;;;;;5035359;28;20459;-82
2023/09/30 03:47:36;;;;;;;32.30;8.70;;;;;;;;;;5035300;28;20476;-80
2023/09/30 03:50:04;;;;;;;23.67;8.03;;;;;;;;;;5035368;28;20473;-81
2023/09/30 03:52:32;;;;;;;20.73;7.50;;;;;;;;;;5035372;28;20423;-81
2023/09/30 03:54:59;;;;;;;13.00;6.73;;;;;;;;;;5034734;28;20455;-81
2023/09/30 03:57:27;;;;;;;20.27;7.30;;;;;;;;;;5034002;28;20544;-81
2023/09/30 03:59:54;;;;;;;14.87;7.07;;;;;;;;;;5032693;28;20464;-81
2023/09/30 04:02:21;;;;;;;11.10;6.47;;;;;;;;;;5034808;28;20448;-82
2023/09/30 04:04:49;;;;;;;14.17;7.37;;;;;;;;;;5033794;28;20503;-81
2023/09/30 04:07:16;;;;;;;10.33;5.40;;;;;;;;;;5034792;28;20415;-80
2023/09/30 04:09:43;;;;;;;12.77;5.87;;;;;;;;;;5034609;28;20555;-81
2023/09/30 04:12:09;;;;;;;16.77;6.27;;;;;;;;;;5035271;28;20457;-81
2023/09/30 04:14:37;;;;;;;12.40;7.00;;;;;;;;;;5034440;28;20480;-81
2023/09/30 04:17:04;;;;;;;15.03;5.83;;;;;;;;;;5017313;28;20473;-81
2023/09/30 04:19:30;;;;;;;21.77;6.00;;;;;;;;;;5016526;28;20479;-82
2023/09/30 04:21:57;;;;;;;16.53;5.60;;;;;;;;;;5035177;28;20444;-81
2023/09/30 04:24:23;;;;;;;13.23;6.73;;;;;;;;;;5036749;28;20463;-81
2023/09/30 04:26:50;;;;;;;20.63;7.50;;;;;;;;;;5035502;28;20419;-81
2023/09/30 04:29:17;;;;;;;10.07;5.77;;;;;;;;;;5033870;28;20468;-82
2023/09/30 04:31:44;;;;;;;17.13;6.03;;;;;;;;;;5034946;28;20520;-82
2023/09/30 04:34:11;;;;;;;14.27;5.97;;;;;;;;;;5034357;28;20469;-81
2023/09/30 04:36:38;;;;;;;16.50;5.60;;;;;;;;;;5034820;28;20440;-81
2023/09/30 04:39:05;;;;;;;14.10;6.53;;;;;;;;;;5034752;28;20468;-82
2023/09/30 04:41:32;;;;;;;12.00;5.97;;;;;;;;;;5033503;28;20448;-82
2023/09/30 04:43:58;;;;;;;16.13;5.87;;;;;;;;;;5036331;28;20472;-81
2023/09/30 04:46:25;;;;;;;15.37;6.13;;;;;;;;;;5034918;28;20547;-82
2023/09/30 04:48:53;;;;;;;15.90;6.20;;;;;;;;;;5034441;28;20556;-82
2023/09/30 04:51:20;;;;;;;22.13;7.30;;;;;;;;;;5036125;28;20460;-81
2023/09/30 04:53:47;;;;;;;16.80;5.87;;;;;;;;;;5034437;28;20483;-81
2023/09/30 04:56:13;;;;;;;12.00;6.23;;;;;;;;;;5036271;28;20502;-81
2023/09/30 04:58:39;;;;;;;13.73;5.90;;;;;;;;;;5033098;28;20522;-81
2023/09/30 05:01:08;;;;;;;17.13;7.17;;;;;;;;;;5034871;28;20443;-81
2023/09/30 05:03:35;;;;;;;14.03;6.13;;;;;;;;;;5033881;28;20472;-82
2023/09/30 05:06:03;;;;;;;18.60;8.10;;;;;;;;;;5034728;28;20437;-81
2023/09/30 05:08:30;;;;;;;14.30;5.90;;;;;;;;;;5033957;28;20542;-81
2023/09/30 05:10:57;;;;;;;17.30;6.90;;;;;;;;;;5033399;28;20484;-81
2023/09/30 05:13:24;;;;;;;16.80;6.13;;;;;;;;;;5034641;28;20495;-81
2023/09/30 05:15:53;;;;;;;17.77;6.90;;;;;;;;;;5034430;28;20465;-81
2023/09/30 05:18:20;;;;;;;9.43;5.17;;;;;;;;;;5035756;28;20461;-81
2023/09/30 05:20:46;;;;;;;14.73;6.63;;;;;;;;;;5033846;28;20945;-82
2023/09/30 05:23:14;;;;;;;25.50;6.77;;;;;;;;;;5036995;28;20522;-81
2023/09/30 05:25:43;;;;;;;11.90;6.00;;;;;;;;;;5053975;28;20439;-81
2023/09/30 05:28:11;;;;;;;15.53;7.50;;;;;;;;;;5053262;28;20460;-81
2023/09/30 05:30:38;;;;;;;16.93;7.03;;;;;;;;;;5053973;28;20439;-82
2023/09/30 05:33:05;;;;;;;17.47;7.60;;;;;;;;;;5056894;28;20464;-82
2023/09/30 05:35:32;;;;;;;17.87;7.37;;;;;;;;;;5057487;28;20957;-81
2023/09/30 05:37:58;;;;;;;16.93;6.20;;;;;;;;;;5057161;28;20494;-81
2023/09/30 05:40:26;;;;;;;12.80;6.67;;;;;;;;;;5057103;28;20451;-81
2023/09/30 05:42:53;;;;;;;13.83;6.27;;;;;;;;;;5056912;28;20440;-81
2023/09/30 05:45:20;;;;;;;18.10;6.80;;;;;;;;;;5047332;28;20468;-81
2023/09/30 05:47:46;;;;;;;19.93;6.70;;;;;;;;;;5035746;28;20444;-81
2023/09/30 05:50:15;;;;;;;14.80;5.77;;;;;;;;;;5017121;28;20445;-81
2023/09/30 05:52:42;;;;;;;14.87;6.33;;;;;;;;;;5019290;28;20445;-81
2023/09/30 05:55:09;;;;;;;23.97;6.40;;;;;;;;;;5017133;28;20520;-82
2023/09/30 05:57:37;;;;;;;13.63;6.17;;;;;;;;;;5021518;28;20992;-81
2023/09/30 06:00:10;;;;;;;17.93;7.27;;;;;;;;;;5017338;28;20473;-81
2023/09/30 06:02:39;;;;;;;20.67;7.07;;;;;;;;;;5017724;28;20516;-81
2023/09/30 06:05:06;;;;;;;14.60;5.83;;;;;;;;;;5015834;28;20462;-81
2023/09/30 06:07:33;;;;;;;15.70;6.20;;;;;;;;;;5017154;28;20463;-81
2023/09/30 06:10:02;;;;;;;10.63;5.57;;;;;;;;;;5014150;28;20457;-81
2023/09/30 06:12:29;;;;;;;15.60;7.00;;;;;;;;;;5037796;28;20461;-81
2023/09/30 06:14:58;;;;;;;14.97;6.60;;;;;;;;;;5032189;28;20447;-81
2023/09/30 06:17:26;;;;;;;21.80;6.47;;;;;;;;;;5041098;28;20511;-81
2023/09/30 06:19:52;;;;;;;12.43;6.33;;;;;;;;;;5035394;28;20477;-81
2023/09/30 06:22:19;;;;;;;12.80;6.40;;;;;;;;;;5037226;28;20441;-81
2023/09/30 06:24:45;;;;;;;14.60;6.93;;;;;;;;;;5038693;28;20472;-81
2023/09/30 06:27:13;;;;;;;36.07;7.73;;;;;;;;;;5039636;28;20521;-81
2023/09/30 06:29:40;;;;;;;16.00;7.00;;;;;;;;;;5036289;28;20469;-81
2023/09/30 06:32:08;;;;;;;14.80;7.00;;;;;;;;;;5036606;28;20441;-82
2023/09/30 06:34:35;;;;;;;16.23;6.60;;;;;;;;;;5037912;28;20833;-81
2023/09/30 06:37:02;;;;;;;11.73;6.60;;;;;;;;;;5037759;28;20488;-82
2023/09/30 06:39:29;;;;;;;20.83;7.70;;;;;;;;;;5036734;28;20473;-81
2023/09/30 06:41:56;;;;;;;20.83;7.23;;;;;;;;;;5040099;28;20472;-81
2023/09/30 06:44:24;;;;;;;17.70;6.43;;;;;;;;;;5047620;28;20476;-81
2023/09/30 06:46:51;;;;;;;20.10;7.33;;;;;;;;;;5054044;28;20467;-82
2023/09/30 06:49:20;;;;;;;19.17;7.23;;;;;;;;;;5034803;28;20476;-81
2023/09/30 06:51:47;;;;;;;17.40;6.90;;;;;;;;;;5038217;28;20452;-82
2023/09/30 06:54:14;;;;;;;20.77;7.30;;;;;;;;;;5035214;28;20450;-81
2023/09/30 06:56:41;;;;;;;13.90;6.73;;;;;;;;;;5035315;28;20426;-81
2023/09/30 06:59:10;;;;;;;14.23;6.00;;;;;;;;;;5037952;28;20477;-81
2023/09/30 07:01:36;;;;;;;16.00;7.37;;;;;;;;;;5036738;28;20953;-81
2023/09/30 07:04:03;;;;;;;18.23;7.67;;;;;;;;;;5035659;28;20451;-81
2023/09/30 07:06:31;;;;;;;12.27;6.87;;;;;;;;;;5038129;28;20471;-81
2023/09/30 07:08:57;;;;;;;14.17;6.77;;;;;;;;;;5035742;28;20560;-81
2023/09/30 07:11:39;;;;;;;14.13;6.70;;;;;;;;;;5035366;28;20808;-81
2023/09/30 07:14:06;;;;;;;18.30;8.20;;;;;;;;;;5046450;28;20884;-81
2023/09/30 07:16:32;;;;;;;14.03;8.17;;;;;;;;;;5055914;28;20435;-81
2023/09/30 07:18:59;;;;;;;11.40;5.80;;;;;;;;;;5053888;28;20438;-81
2023/09/30 07:21:25;;;;;;;19.53;7.63;;;;;;;;;;5040098;28;20518;-83
2023/09/30 07:23:55;;;;;;;15.70;7.93;;;;;;;;;;5035047;28;20477;-81
2023/09/30 07:26:25;;;;;;;18.53;7.90;;;;;;;;;;5038197;28;20415;-80
2023/09/30 07:28:53;;;;;;;16.70;7.33;;;;;;;;;;5035117;28;20473;-80
2023/09/30 07:31:20;;;;;;;16.77;7.60;;;;;;;;;;5035874;28;20940;-80
2023/09/30 07:33:47;;;;;;;30.13;6.80;;;;;;;;;;5035251;28;20455;-80
2023/09/30 07:36:14;;;;;;;15.43;6.60;;;;;;;;;;5038230;28;20471;-81
2023/09/30 07:38:42;;;;;;;15.57;6.60;;;;;;;;;;5034696;28;20547;-81
2023/09/30 07:41:10;;;;;;;15.93;7.87;;;;;;;;;;5035735;28;20447;-82
2023/09/30 07:43:36;;;;;;;12.57;7.60;;;;;;;;;;5034413;28;20459;-81
2023/09/30 07:46:08;;;;;;;14.33;7.23;;;;;;;;;;5035733;28;20453;-80
2023/09/30 07:48:34;;;;;;;14.37;7.10;;;;;;;;;;5036803;28;20949;-83
2023/09/30 07:51:01;;;;;;;15.13;7.23;;;;;;;;;;5035477;28;20445;-82
2023/09/30 07:53:27;;;;;;;20.00;6.73;;;;;;;;;;5032470;28;20468;-81
2023/09/30 07:55:54;;;;;;;19.17;7.17;;;;;;;;;;5035781;28;20418;-82
2023/09/30 07:58:22;;;;;;;12.73;5.87;;;;;;;;;;5036577;28;20489;-82
2023/09/30 08:00:48;;;;;;;12.63;6.33;;;;;;;;;;5035747;28;20452;-81
2023/09/30 08:03:15;;;;;;;13.30;6.40;;;;;;;;;;5039230;28;20476;-81
2023/09/30 08:05:42;;;;;;;9.60;5.90;;;;;;;;;;5037210;28;20522;-81
2023/09/30 08:08:10;;;;;;;17.40;6.00;;;;;;;;;;5035280;28;20472;-83
2023/09/30 08:10:37;;;;;;;19.10;7.03;;;;;;;;;;5035379;28;20905;-81
2023/09/30 08:13:05;;;;;;;13.47;6.00;;;;;;;;;;5035216;28;20443;-81
2023/09/30 08:15:33;;;;;;;14.10;6.00;;;;;;;;;;5035259;28;20433;-81
2023/09/30 08:17:59;;;;;;;18.27;7.60;;;;;;;;;;5035030;28;20480;-81
2023/09/30 08:20:26;;;;;;;17.07;6.30;;;;;;;;;;5035690;28;20977;-82
2023/09/30 08:22:52;;;;;;;20.33;7.60;;;;;;;;;;5035155;28;20476;-81
2023/09/30 08:25:18;;;;;;;8.50;5.90;;;;;;;;;;5033555;28;20827;-81
2023/09/30 08:27:49;;;;;;;13.40;6.30;;;;;;;;;;5033960;28;20452;-82
2023/09/30 08:30:16;;;;;;;17.47;6.23;;;;;;;;;;5035732;28;20422;-81
2023/09/30 08:32:44;;;;;;;12.00;6.27;;;;;;;;;;5035486;28;20448;-82
2023/09/30 08:35:11;;;;;;;16.53;6.40;;;;;;;;;;5035532;28;20443;-82
2023/09/30 08:37:37;;;;;;;9.33;4.83;;;;;;;;;;5035329;28;20492;-80
2023/09/30 08:40:05;;;;;;;15.77;6.00;;;;;;;;;;5053655;28;20453;-82
2023/09/30 08:42:33;;;;;;;13.50;5.30;;;;;;;;;;5055542;28;20452;-82
2023/09/30 08:45:00;;;;;;;13.83;5.57;;;;;;;;;;5035315;28;20472;-80
2023/09/30 08:47:27;;;;;;;10.87;4.80;;;;;;;;;;5035428;28;20498;-81
2023/09/30 08:49:57;;;;;;;13.63;6.10;;;;;;;;;;5034788;28;20472;-81
2023/09/30 08:52:24;;;;;;;10.27;5.30;;;;;;;;;;5034725;28;20441;-82
2023/09/30 08:54:50;;;;;;;11.83;5.00;;;;;;;;;;5034329;28;20472;-82
2023/09/30 08:57:19;;;;;;;8.07;5.27;;;;;;;;;;5067090;28;20444;-82
2023/09/30 08:59:47;;;;;;;10.10;5.40;;;;;;;;;;5033710;28;20464;-82
2023/09/30 09:02:14;;;;;;;15.90;5.00;;;;;;;;;;5035169;28;20407;-80
2023/09/30 09:04:41;;;;;;;16.37;5.87;;;;;;;;;;5040267;28;20911;-80
2023/09/30 09:07:08;;;;;;;9.17;4.00;;;;;;;;;;5058094;28;20808;-80
2023/09/30 09:09:35;;;;;;;17.07;5.10;;;;;;;;;;5059618;28;20483;-82
2023/09/30 09:12:02;;;;;;;13.20;5.67;;;;;;;;;;5059472;28;20792;-82
2023/09/30 09:14:39;;;;;;;11.30;4.20;;;;;;;;;;5058423;28;20475;-80
2023/09/30 09:17:07;;;;;;;14.53;5.27;;;;;;;;;;5060371;28;20431;-80
2023/09/30 09:19:34;;;;;;;19.90;5.23;;;;;;;;;;5058427;28;20480;-80
2023/09/30 09:22:01;;;;;;;13.83;4.80;;;;;;;;;;5059330;28;20466;-80
2023/09/30 09:24:30;;;;;;;9.50;4.30;;;;;;;;;;5058277;28;20475;-81
2023/09/30 09:27:06;;;;;;;14.13;4.73;;;;;;;;;;5059703;28;20503;-82
2023/09/30 09:29:32;;;;;;;10.93;4.27;;;;;;;;;;5045759;28;20476;-81
2023/09/30 09:32:07;;;;;;;12.60;4.70;;;;;;;;;;5039852;28;20476;-80
2023/09/30 09:34:34;;;;;;;13.17;5.00;;;;;;;;;;5037409;28;20476;-83
2023/09/30 09:37:00;;;;;;;10.23;4.93;;;;;;;;;;5039268;28;20419;-83
2023/09/30 09:39:32;;;;;;;11.63;4.10;;;;;;;;;;5037180;28;20514;-81
2023/09/30 09:42:01;;;;;;;19.63;5.10;;;;;;;;;;5038742;28;21021;-82
2023/09/30 09:44:28;;;;;;;7.33;3.40;;;;;;;;;;5021503;28;20472;-81
2023/09/30 09:46:54;;;;;;;11.83;3.70;;;;;;;;;;5039211;28;20433;-82
2023/09/30 09:49:21;;;;;;;9.67;4.27;;;;;;;;;;5039026;28;20465;-82
2023/09/30 09:51:48;;;;;;;10.73;4.10;;;;;;;;;;5038693;28;20996;-82
2023/09/30 09:54:15;;;;;;;10.90;4.60;;;;;;;;;;5036565;28;21063;-85
2023/09/30 09:56:43;;;;;;;11.57;4.40;;;;;;;;;;5038847;28;20437;-83
2023/09/30 09:59:10;;;;;;;14.93;3.97;;;;;;;;;;5026344;28;20834;-81
2023/09/30 10:01:39;;;;;;;13.53;3.00;;;;;;;;;;5050045;28;20453;-80
2023/09/30 10:04:06;;;;;;;14.87;3.60;;;;;;;;;;5034114;28;20859;-81
2023/09/30 10:06:38;;;;;;;11.87;4.67;;;;;;;;;;5058581;28;20456;-81
2023/09/30 10:09:06;;;;;;;10.63;3.50;;;;;;;;;;5045437;28;20472;-81
2023/09/30 10:11:32;;;;;;;7.50;3.20;;;;;;;;;;5038301;28;20443;-80
2023/09/30 10:14:02;;;;;;;9.30;3.57;;;;;;;;;;5038075;28;21022;-80
2023/09/30 10:16:48;;;;;;;11.10;3.73;;;;;;;;;;5037706;28;20517;-80
2023/09/30 10:19:14;;;;;;;15.13;4.60;;;;;;;;;;5019140;28;20482;-82
2023/09/30 10:21:46;;;;;;;9.33;3.57;;;;;;;;;;5018905;28;20449;-81
2023/09/30 10:24:31;;;;;;;12.90;3.80;;;;;;;;;;5017509;28;20482;-83
2023/09/30 10:27:12;;;;;;;12.10;3.10;;;;;;;;;;5019404;28;20450;-80
2023/09/30 10:29:54;;;;;;;14.70;4.60;;;;;;;;;;5017037;28;20469;-80
2023/09/30 10:32:20;;;;;;;11.90;3.93;;;;;;;;;;5016498;28;20446;-80
2023/09/30 10:34:51;;;;;;;12.00;3.40;;;;;;;;;;5017559;28;20487;-80
2023/09/30 10:37:21;;;;;;;8.50;3.13;;;;;;;;;;5031038;28;20453;-81
2023/09/30 10:39:55;;;;;;;10.30;3.40;;;;;;;;;;5037013;28;20488;-80
2023/09/30 10:42:39;;;;;;;10.40;3.40;;;;;;;;;;5037328;28;20449;-81
2023/09/30 10:45:08;;;;;;;7.20;2.80;;;;;;;;;;5035958;28;20465;-79
2023/09/30 10:47:35;;;;;;;7.90;2.90;;;;;;;;;;5037803;28;20441;-82
2023/09/30 10:50:04;;;;;;;8.90;2.50;;;;;;;;;;5036686;28;20476;-81
2023/09/30 10:52:31;;;;;;;6.97;2.60;;;;;;;;;;5049262;28;20447;-81
2023/09/30 10:55:02;;;;;;;7.27;2.80;;;;;;;;;;5069882;28;20478;-81
2023/09/30 10:57:29;;;;;;;9.17;2.43;;;;;;;;;;5068879;28;20986;-81
2023/09/30 11:00:10;;;;;;;10.00;3.00;;;;;;;;;;5068237;28;20487;-81
2023/09/30 11:02:51;;;;;;;8.93;3.00;;;;;;;;;;5036218;28;20478;-80
2023/09/30 11:05:17;;;;;;;15.83;3.37;;;;;;;;;;5048053;28;20480;-82
2023/09/30 11:07:44;;;;;;;6.40;2.30;;;;;;;;;;5056166;28;20448;-80
2023/09/30 11:10:12;;;;;;;11.03;4.10;;;;;;;;;;5056459;28;20432;-80
2023/09/30 11:12:38;;;;;;;14.40;2.73;;;;;;;;;;5056346;28;20448;-80
2023/09/30 11:15:08;;;;;;;8.00;2.67;;;;;;;;;;5053992;28;20525;-82
2023/09/30 11:17:36;;;;;;;4.73;2.40;;;;;;;;;;5058143;28;20468;-81
2023/09/30 11:20:06;;;;;;;5.40;2.57;;;;;;;;;;5056911;28;20490;-81
2023/09/30 11:22:34;;;;;;;11.13;3.20;;;;;;;;;;5056063;28;20440;-80
2023/09/30 11:25:01;;;;;;;7.30;3.20;;;;;;;;;;5036519;28;20488;-81
2023/09/30 11:27:27;;;;;;;6.03;2.93;;;;;;;;;;5034739;28;20519;-80
2023/09/30 11:29:53;;;;;;;8.00;2.40;;;;;;;;;;5034348;28;20469;-80
2023/09/30 11:32:27;;;;;;;8.67;2.73;;;;;;;;;;5035857;28;20444;-80
2023/09/30 11:34:54;;;;;;;9.63;2.40;;;;;;;;;;5034631;28;20522;-81
2023/09/30 11:37:21;;;;;;;8.17;2.60;;;;;;;;;;5035172;28;20465;-81
2023/09/30 11:39:50;;;;;;;6.23;2.30;;;;;;;;;;5035285;28;20481;-81
2023/09/30 11:42:19;;;;;;;9.00;3.10;;;;;;;;;;5041435;28;20444;-82
2023/09/30 11:44:46;;;;;;;5.80;2.13;;;;;;;;;;5040247;28;20508;-81
2023/09/30 11:47:13;;;;;;;12.17;3.00;;;;;;;;;;5037522;28;20510;-81
2023/09/30 11:49:40;;;;;;;6.90;2.10;;;;;;;;;;5034611;28;20476;-81
2023/09/30 11:52:09;;;;;;;6.87;2.50;;;;;;;;;;5035129;28;20468;-81
2023/09/30 11:54:41;;;;;;;7.10;1.70;;;;;;;;;;5035896;28;20552;-82
2023/09/30 11:57:09;;;;;;;6.07;2.33;;;;;;;;;;5037801;28;20464;-81
2023/09/30 11:59:36;;;;;;;3.77;2.00;;;;;;;;;;5050956;28;20475;-79
2023/09/30 12:02:03;;;;;;;7.60;2.67;;;;;;;;;;5055662;28;20443;-80
2023/09/30 12:04:29;;;;;;;5.60;2.20;;;;;;;;;;5055045;28;20507;-81
2023/09/30 12:06:58;;;;;;;7.00;2.00;;;;;;;;;;5055464;28;20464;-80
2023/09/30 12:09:26;;;;;;;11.07;3.23;;;;;;;;;;5050736;28;20564;-82
2023/09/30 12:11:55;;;;;;;7.53;2.23;;;;;;;;;;5055224;28;20460;-81
2023/09/30 12:14:22;;;;;;;6.80;2.33;;;;;;;;;;5054670;28;20833;-81
2023/09/30 12:16:49;;;;;;;4.20;1.77;;;;;;;;;;5055256;28;20443;-81
2023/09/30 12:19:16;;;;;;;7.67;2.33;;;;;;;;;;5054728;28;21012;-80
2023/09/30 12:21:43;;;;;;;9.43;2.60;;;;;;;;;;5055061;28;20440;-81
2023/09/30 12:24:10;;;;;;;9.20;2.70;;;;;;;;;;5055778;28;20480;-79
2023/09/30 12:26:40;;;;;;;6.43;2.30;;;;;;;;;;5054912;28;20440;-81
2023/09/30 12:29:09;;;;;;;5.97;2.20;;;;;;;;;;5054522;28;20897;-81
2023/09/30 12:31:35;;;;;;;5.20;3.03;;;;;;;;;;5055034;28;20455;-82
2023/09/30 12:34:02;;;;;;;8.97;2.57;;;;;;;;;;5053852;28;20499;-81
2023/09/30 12:36:28;;;;;;;6.10;1.60;;;;;;;;;;5054549;28;20518;-80
2023/09/30 12:38:54;;;;;;;4.33;1.70;;;;;;;;;;5053584;28;20472;-81
2023/09/30 12:41:21;;;;;;;5.77;1.80;;;;;;;;;;5060177;28;20443;-81
2023/09/30 12:43:48;;;;;;;6.00;1.90;;;;;;;;;;5060513;28;20998;-82
2023/09/30 12:46:16;;;;;;;6.63;3.10;;;;;;;;;;5061638;28;20455;-80
2023/09/30 12:48:42;;;;;;;8.00;2.50;;;;;;;;;;5093040;28;20483;-81
2023/09/30 12:51:08;;;;;;;8.40;2.80;;;;;;;;;;5059981;28;20455;-81
2023/09/30 12:53:35;;;;;;;5.53;2.50;;;;;;;;;;5060923;28;20525;-81
2023/09/30 12:56:01;;;;;;;5.37;2.00;;;;;;;;;;5061036;28;20444;-80
2023/09/30 12:58:28;;;;;;;6.23;2.50;;;;;;;;;;5059372;28;21011;-81
2023/09/30 13:00:56;;;;;;;10.27;3.20;;;;;;;;;;5059822;28;20490;-80
2023/09/30 13:03:23;;;;;;;5.10;2.77;;;;;;;;;;5061081;28;20471;-80
2023/09/30 13:05:50;;;;;;;4.73;2.53;;;;;;;;;;5060702;28;20455;-80
2023/09/30 13:08:16;;;;;;;4.67;2.10;;;;;;;;;;5060269;28;21017;-81
2023/09/30 13:10:43;;;;;;;5.00;2.37;;;;;;;;;;5061333;28;20813;-80
2023/09/30 13:13:10;;;;;;;4.40;1.90;;;;;;;;;;5060671;28;20529;-80
2023/09/30 13:15:37;;;;;;;5.40;2.20;;;;;;;;;;5061034;28;20463;-81
2023/09/30 13:18:05;;;;;;;4.97;2.33;;;;;;;;;;5060666;28;20466;-80
2023/09/30 13:20:32;;;;;;;14.07;2.40;;;;;;;;;;5060916;28;20841;-81
2023/09/30 13:22:58;;;;;;;7.10;2.50;;;;;;;;;;5060644;28;20531;-81
2023/09/30 13:25:26;;;;;;;7.67;2.47;;;;;;;;;;5059584;28;20443;-81
2023/09/30 13:27:52;;;;;;;8.90;1.93;;;;;;;;;;5060621;28;20454;-81
2023/09/30 13:30:19;;;;;;;5.63;2.37;;;;;;;;;;5060942;28;20440;-81
2023/09/30 13:32:46;;;;;;;7.40;2.13;;;;;;;;;;5060811;28;20435;-80
2023/09/30 13:35:13;;;;;;;6.50;2.30;;;;;;;;;;5060717;28;20482;-83
2023/09/30 13:37:40;;;;;;;4.30;1.73;;;;;;;;;;5060996;28;20455;-81
2023/09/30 13:40:08;;;;;;;5.83;2.50;;;;;;;;;;5060919;28;20478;-80
2023/09/30 13:42:34;;;;;;;8.40;2.40;;;;;;;;;;5061076;28;20448;-81
2023/09/30 13:45:01;;;;;;;8.10;2.67;;;;;;;;;;5060138;28;20506;-80
2023/09/30 13:47:28;;;;;;;6.93;3.20;;;;;;;;;;5060581;28;20990;-81
2023/09/30 13:49:54;;;;;;;5.80;3.00;;;;;;;;;;5041746;28;21024;-81
2023/09/30 13:52:23;;;;;;;8.97;3.30;;;;;;;;;;5040323;28;20461;-80
2023/09/30 13:54:50;;;;;;;14.50;2.57;;;;;;;;;;5036150;28;20882;-81
2023/09/30 13:57:16;;;;;;;10.73;2.40;;;;;;;;;;5037338;28;20966;-81
2023/09/30 13:59:43;;;;;;;7.20;2.33;;;;;;;;;;5035391;28;20526;-81
2023/09/30 14:02:12;;;;;;;6.60;2.40;;;;;;;;;;5037299;28;20445;-80
2023/09/30 14:04:38;;;;;;;4.30;1.90;;;;;;;;;;5035449;28;20998;-81
2023/09/30 14:07:07;;;;;;;8.27;2.97;;;;;;;;;;5039293;28;20975;-81
2023/09/30 14:09:35;;;;;;;7.80;2.27;;;;;;;;;;5036942;28;20556;-81
2023/09/30 14:12:03;;;;;;;9.50;2.10;;;;;;;;;;5037154;28;20440;-79
2023/09/30 14:14:31;;;;;;;8.77;3.40;;;;;;;;;;5037002;28;20487;-81
2023/09/30 14:16:57;;;;;;;9.37;3.23;;;;;;;;;;5037998;28;20460;-79
2023/09/30 14:19:24;;;;;;;6.20;1.77;;;;;;;;;;5036580;28;21085;-79
2023/09/30 14:21:50;;;;;;;8.80;2.37;;;;;;;;;;5036646;28;20509;-79
2023/09/30 14:24:17;;;;;;;9.53;2.80;;;;;;;;;;5036668;28;20499;-79
2023/09/30 14:26:45;;;;;;;5.63;2.77;;;;;;;;;;5037603;28;20457;-79
2023/09/30 14:29:13;;;;;;;4.60;2.10;;;;;;;;;;5036583;28;20472;-81
2023/09/30 14:31:40;;;;;;;6.03;2.00;;;;;;;;;;5036716;28;20514;-79
2023/09/30 14:34:06;;;;;;;6.73;2.47;;;;;;;;;;5035093;28;20480;-81
2023/09/30 14:36:33;;;;;;;7.93;2.17;;;;;;;;;;5036329;28;20457;-81